Country
Station

 

Weather  for  Albany, Albany County Airport  -  United States    United States

  
6 °C (43 °F)
    
 
 

Current METAR for Albany, Albany County Airport is :

KALB 192051Z 30017G28KT 10SM SCT040 BKN090 06/M03 A2978 RMK AO2 PK WND 29032/2018 SLP088 60000 T00561033 50018

 

This is a report for Albany, Albany County Airport - United States.
 
The report was made 25 minutes ago, at 20:51 UTC .
The wind was blowing at a speed of 8.7 meters per second (19.6 miles per hour) with gusts up to 14.4 meters per second (32.2 miles per hour) from west/northwest (300°).
 
The temperature was 6 °C (43 °F), with a dew-point at -3 °C (27 °F).
The atmospheric pressure was 1008 hPa (29.78 inHg).
The relative humidity was 52.4%.
 
There were scattered clouds at a height of 1219 meters (4000 feet) and broken clouds at a height of 2743 meters (9000 feet).
 
The overall visibility was 16.1 kilometers (10.0 miles).
 

 
 
 
 

Country :   A   B   C   D   E   F   G   H   I   J   K   L   M   N   O   P   Q   R   S   T   U   V   W   Y   Z

 

Site Info  |  Disclaimer  |  Credits  |  Privacy
Contact us  |  Add to favorites
© 2013-2018 METARs - All rights reserved